createdAt,value
2016-09-01T00:00:45.982Z,72.32
2016-09-01T00:01:56.244Z,72.33
2016-09-01T00:02:57.360Z,72.37
2016-09-01T00:03:49.996Z,72.30
2016-09-01T00:04:43.394Z,72.33
2016-09-01T00:05:49.648Z,72.29
2016-09-01T00:06:55.955Z,72.27
2016-09-01T00:07:50.851Z,72.34
2016-09-01T00:08:45.584Z,72.34
2016-09-01T00:09:51.683Z,72.35
2016-09-01T00:10:55.620Z,72.29
2016-09-01T00:12:00.623Z,72.27
2016-09-01T00:12:49.130Z,71.20
2016-09-01T00:14:06.648Z,71.02
2016-09-01T00:14:46.072Z,70.84
2016-09-01T00:15:52.185Z,70.81
2016-09-01T00:16:45.127Z,71.05
2016-09-01T00:17:56.335Z,70.94
2016-09-01T00:18:47.199Z,70.87
2016-09-01T00:19:41.990Z,70.82
2016-09-01T00:21:01.483Z,70.77
2016-09-01T00:21:56.206Z,70.86
2016-09-01T00:22:51.726Z,70.89
2016-09-01T00:23:55.698Z,70.94
2016-09-01T00:24:50.974Z,72.09
2016-09-01T00:25:50.247Z,72.22
2016-09-01T00:26:56.200Z,72.41
2016-09-01T00:27:54.775Z,72.56
2016-09-01T00:28:46.215Z,71.46
2016-09-01T00:29:44.958Z,71.41
2016-09-01T00:30:50.458Z,71.19
2016-09-01T00:31:51.353Z,71.11
2016-09-01T00:32:56.309Z,71.16
2016-09-01T00:33:46.249Z,71.10
2016-09-01T00:34:45.512Z,70.94
2016-09-01T00:36:02.655Z,71.00
2016-09-01T00:36:57.995Z,70.94
2016-09-01T00:37:43.926Z,71.05
2016-09-01T00:38:47.407Z,72.38
2016-09-01T00:39:50.867Z,72.49
2016-09-01T00:40:40.682Z,72.57
2016-09-01T00:41:39.798Z,72.54
2016-09-01T00:42:49.469Z,72.55
2016-09-01T00:43:47.358Z,72.57
2016-09-01T00:44:50.569Z,72.52
2016-09-01T00:45:51.530Z,72.53
2016-09-01T00:47:01.922Z,72.59
2016-09-01T00:48:00.462Z,72.60
2016-09-01T00:49:00.417Z,72.72
2016-09-01T00:50:01.055Z,72.77
2016-09-01T00:50:46.102Z,72.83
2016-09-01T00:51:45.066Z,72.84
2016-09-01T00:52:48.999Z,72.72
2016-09-01T00:53:42.099Z,72.69
2016-09-01T00:54:44.547Z,72.60
2016-09-01T00:55:55.668Z,72.68
2016-09-01T00:56:56.515Z,72.83
2016-09-01T00:57:50.863Z,72.58
2016-09-01T00:58:45.000Z,72.57
2016-09-01T01:00:21.799Z,72.52
2016-09-01T01:01:51.619Z,72.60
2016-09-01T01:02:50.882Z,72.58
2016-09-01T01:03:50.947Z,72.67
2016-09-01T01:04:53.813Z,72.57
2016-09-01T01:05:51.461Z,72.50
2016-09-01T01:07:01.781Z,72.44
2016-09-01T01:07:51.316Z,72.64
2016-09-01T01:08:51.127Z,72.78
2016-09-01T01:09:51.609Z,72.76
2016-09-01T01:10:52.198Z,72.86
2016-09-01T01:12:25.223Z,72.80
2016-09-01T01:13:27.763Z,72.77
2016-09-01T01:14:10.422Z,72.78
2016-09-01T01:14:46.234Z,72.87
2016-09-01T01:15:50.632Z,72.79
2016-09-01T01:16:46.040Z,72.77
2016-09-01T01:17:56.067Z,72.81
2016-09-01T01:18:53.006Z,72.72
2016-09-01T01:19:58.547Z,72.88
2016-09-01T01:21:21.197Z,72.87
2016-09-01T01:22:20.793Z,72.90
2016-09-01T01:22:48.926Z,72.91
2016-09-01T01:23:49.069Z,73.03
2016-09-01T01:24:38.593Z,72.98
2016-09-01T01:25:45.650Z,73.08
2016-09-01T01:26:51.626Z,73.10
2016-09-01T01:27:40.376Z,73.01
2016-09-01T01:28:51.140Z,73.23
2016-09-01T01:29:50.659Z,73.21
2016-09-01T01:30:54.995Z,73.10
2016-09-01T01:31:45.063Z,73.17
2016-09-01T01:32:48.825Z,73.11
2016-09-01T01:34:16.362Z,72.98
2016-09-01T01:34:55.169Z,72.92
2016-09-01T01:35:54.586Z,72.95
2016-09-01T01:36:49.141Z,73.11
2016-09-01T01:38:14.854Z,73.25
2016-09-01T01:38:58.914Z,73.31
2016-09-01T01:39:49.254Z,73.19
2016-09-01T01:40:50.891Z,73.14
2016-09-01T01:41:46.162Z,73.23
2016-09-01T01:43:00.247Z,73.29
2016-09-01T01:43:49.535Z,73.38
2016-09-01T01:44:42.759Z,73.40
2016-09-01T01:46:01.622Z,73.18
2016-09-01T01:46:51.650Z,73.27
2016-09-01T01:48:04.085Z,73.23
2016-09-01T01:48:53.546Z,73.23
2016-09-01T01:50:00.875Z,73.10
2016-09-01T01:50:55.273Z,73.17
2016-09-01T01:52:06.651Z,73.11
2016-09-01T01:52:45.581Z,73.15
2016-09-01T01:53:50.599Z,73.24
2016-09-01T01:54:51.683Z,73.17
2016-09-01T01:55:50.824Z,73.00
2016-09-01T01:57:16.839Z,73.18
2016-09-01T01:57:49.691Z,73.08
2016-09-01T01:58:51.557Z,73.10
2016-09-01T01:59:50.667Z,73.21
2016-09-01T02:00:51.544Z,73.08
2016-09-01T02:01:55.695Z,73.21
2016-09-01T02:02:49.649Z,73.09
2016-09-01T02:03:50.087Z,73.23
2016-09-01T02:05:00.328Z,73.28
2016-09-01T02:06:00.461Z,73.39
2016-09-01T02:06:50.264Z,73.30
2016-09-01T02:07:45.562Z,73.25
2016-09-01T02:08:40.532Z,73.24
2016-09-01T02:09:51.333Z,73.18
2016-09-01T02:10:51.170Z,73.09
2016-09-01T02:11:51.081Z,73.06
2016-09-01T02:12:50.019Z,73.30
2016-09-01T02:13:57.741Z,73.24
2016-09-01T02:14:43.707Z,73.25
2016-09-01T02:15:51.005Z,73.26
2016-09-01T02:17:00.241Z,73.27
2016-09-01T02:17:54.652Z,73.27
2016-09-01T02:18:54.891Z,73.40
2016-09-01T02:19:54.625Z,73.37
2016-09-01T02:20:46.052Z,73.46
2016-09-01T02:21:53.092Z,73.57
2016-09-01T02:22:55.283Z,73.52
2016-09-01T02:23:40.895Z,73.63
2016-09-01T02:24:54.856Z,73.71
2016-09-01T02:26:22.993Z,73.52
2016-09-01T02:26:52.089Z,73.56
2016-09-01T02:27:59.647Z,73.29
2016-09-01T02:29:02.163Z,72.90
2016-09-01T02:29:50.687Z,73.43
2016-09-01T02:30:51.642Z,73.58
2016-09-01T02:31:45.338Z,73.71
2016-09-01T02:32:46.107Z,73.63
2016-09-01T02:34:04.130Z,73.53
2016-09-01T02:34:47.767Z,73.34
2016-09-01T02:35:51.386Z,73.34
2016-09-01T02:37:15.052Z,73.51
2016-09-01T02:37:59.070Z,73.66
2016-09-01T02:38:50.260Z,73.57
2016-09-01T02:40:01.358Z,73.74
2016-09-01T02:40:51.734Z,73.80
2016-09-01T02:41:45.905Z,73.80
2016-09-01T02:42:48.384Z,73.87
2016-09-01T02:43:51.832Z,73.87
2016-09-01T02:44:56.384Z,73.97
2016-09-01T02:45:50.801Z,73.88
2016-09-01T02:46:56.041Z,73.97
2016-09-01T02:47:55.322Z,74.13
2016-09-01T02:48:46.173Z,74.05
2016-09-01T02:49:50.238Z,74.05
2016-09-01T02:50:51.552Z,74.14
2016-09-01T02:51:46.183Z,74.26
2016-09-01T02:52:49.708Z,74.13
2016-09-01T02:53:55.347Z,74.40
2016-09-01T02:54:56.224Z,74.32
2016-09-01T02:55:45.460Z,74.33
2016-09-01T02:56:55.364Z,74.22
2016-09-01T02:57:51.133Z,74.28
2016-09-01T02:58:55.649Z,74.24
2016-09-01T02:59:51.512Z,74.25
2016-09-01T03:00:45.696Z,74.21
2016-09-01T03:01:50.647Z,73.16
2016-09-01T03:02:48.938Z,72.81
2016-09-01T03:03:44.883Z,72.92
2016-09-01T03:04:50.661Z,73.66
2016-09-01T03:05:51.351Z,73.93
2016-09-01T03:06:51.008Z,73.95
2016-09-01T03:07:57.698Z,74.03
2016-09-01T03:09:04.072Z,73.91
2016-09-01T03:09:58.128Z,73.76
2016-09-01T03:10:50.259Z,73.82
2016-09-01T03:11:55.581Z,73.90
2016-09-01T03:12:41.473Z,73.80
2016-09-01T03:13:45.580Z,73.84
2016-09-01T03:14:48.341Z,73.89
2016-09-01T03:15:56.407Z,74.02
2016-09-01T03:16:50.743Z,73.90
2016-09-01T03:17:45.766Z,73.92
2016-09-01T03:18:51.540Z,74.03
2016-09-01T03:20:00.461Z,74.09
2016-09-01T03:20:50.175Z,74.13
2016-09-01T03:21:50.405Z,74.23
2016-09-01T03:22:59.400Z,74.25
2016-09-01T03:23:51.363Z,74.15
2016-09-01T03:25:00.216Z,74.20
2016-09-01T03:25:49.967Z,74.10
2016-09-01T03:27:03.281Z,74.12
2016-09-01T03:27:57.092Z,74.00
2016-09-01T03:28:46.260Z,74.06
2016-09-01T03:29:45.210Z,73.91
2016-09-01T03:30:55.231Z,73.95
2016-09-01T03:31:56.291Z,73.37
2016-09-01T03:32:51.256Z,72.95
2016-09-01T03:33:46.188Z,72.52
2016-09-01T03:34:46.083Z,72.32
2016-09-01T03:35:50.564Z,72.14
2016-09-01T03:36:51.292Z,70.71
2016-09-01T03:38:16.870Z,70.26
2016-09-01T03:38:50.446Z,70.02
2016-09-01T03:39:50.832Z,69.61
2016-09-01T03:40:46.233Z,69.40
2016-09-01T03:41:51.509Z,69.15
2016-09-01T03:42:54.981Z,69.18
2016-09-01T03:43:56.398Z,69.10
2016-09-01T03:44:51.349Z,70.04
2016-09-01T03:45:55.217Z,70.26
2016-09-01T03:46:40.963Z,70.40
2016-09-01T03:47:54.527Z,70.41
2016-09-01T03:48:41.030Z,70.53
2016-09-01T03:49:53.067Z,70.14
2016-09-01T03:50:44.916Z,70.20
2016-09-01T03:52:01.558Z,70.25
2016-09-01T03:52:18.061Z,70.34
2016-09-01T03:53:54.312Z,70.33
2016-09-01T03:54:50.589Z,70.52
2016-09-01T03:55:51.369Z,70.23
2016-09-01T03:56:50.322Z,70.30
2016-09-01T03:57:51.634Z,69.90
2016-09-01T03:58:49.842Z,69.94
2016-09-01T03:59:51.069Z,69.72
2016-09-01T04:00:50.183Z,69.45
2016-09-01T04:01:50.217Z,68.50
2016-09-01T04:02:55.645Z,68.02
2016-09-01T04:03:51.465Z,67.80
2016-09-01T04:04:55.254Z,67.90
2016-09-01T04:05:40.698Z,67.77
2016-09-01T04:06:46.185Z,67.65
2016-09-01T04:07:46.339Z,67.57
2016-09-01T04:08:57.259Z,67.84
2016-09-01T04:09:55.218Z,68.97
2016-09-01T04:10:39.572Z,69.09
2016-09-01T04:11:46.005Z,69.32
2016-09-01T04:12:48.759Z,69.15
2016-09-01T04:13:57.244Z,69.07
2016-09-01T04:14:47.785Z,69.07
2016-09-01T04:16:00.208Z,69.26
2016-09-01T04:16:49.154Z,69.02
2016-09-01T04:17:56.905Z,68.89
2016-09-01T04:18:53.859Z,68.85
2016-09-01T04:19:51.561Z,68.77
2016-09-01T04:21:01.542Z,68.67
2016-09-01T04:21:57.577Z,68.60
2016-09-01T04:22:44.756Z,68.57
2016-09-01T04:23:41.420Z,68.69
2016-09-01T04:24:54.988Z,68.57
2016-09-01T04:25:54.209Z,68.22
2016-09-01T04:26:44.784Z,67.62
2016-09-01T04:27:56.019Z,67.27
2016-09-01T04:28:51.537Z,68.42
2016-09-01T04:29:51.923Z,68.58
2016-09-01T04:30:48.815Z,68.60
2016-09-01T04:31:45.280Z,68.51
2016-09-01T04:32:48.666Z,68.54
2016-09-01T04:33:50.267Z,68.71
2016-09-01T04:34:50.141Z,68.73
2016-09-01T04:36:04.473Z,68.73
2016-09-01T04:36:48.801Z,68.72
2016-09-01T04:37:53.399Z,68.64
2016-09-01T04:38:44.501Z,68.72
2016-09-01T04:39:56.428Z,68.65
2016-09-01T04:40:51.034Z,68.66
2016-09-01T04:41:47.644Z,68.63
2016-09-01T04:42:51.015Z,68.58
2016-09-01T04:43:43.669Z,68.63
2016-09-01T04:44:45.445Z,68.48
2016-09-01T04:46:09.323Z,68.59
2016-09-01T04:47:04.045Z,68.59
2016-09-01T04:47:53.576Z,68.68
2016-09-01T04:48:49.223Z,68.72
2016-09-01T04:49:39.373Z,68.75
2016-09-01T04:50:30.880Z,68.69
2016-09-01T04:51:55.092Z,68.98
2016-09-01T04:52:49.006Z,68.84
2016-09-01T04:53:45.254Z,68.86
2016-09-01T04:54:38.101Z,68.81
2016-09-01T04:55:50.586Z,68.70
2016-09-01T04:56:47.437Z,69.13
2016-09-01T04:57:57.117Z,69.68
2016-09-01T04:58:48.320Z,69.73
2016-09-01T05:00:00.090Z,69.97
2016-09-01T05:01:02.806Z,70.16
2016-09-01T05:01:46.593Z,69.93
2016-09-01T05:02:52.195Z,70.00
2016-09-01T05:03:44.532Z,70.36
2016-09-01T05:04:46.031Z,70.24
2016-09-01T05:05:45.272Z,70.26
2016-09-01T05:06:44.651Z,70.16
2016-09-01T05:07:56.705Z,70.29
2016-09-01T05:08:54.477Z,70.40
2016-09-01T05:09:46.465Z,70.16
2016-09-01T05:10:39.708Z,70.50
2016-09-01T05:11:45.852Z,70.48
2016-09-01T05:12:38.936Z,70.44
2016-09-01T05:13:24.745Z,70.42
2016-09-01T05:14:22.207Z,70.66
2016-09-01T05:15:22.002Z,70.50
2016-09-01T05:16:15.386Z,70.26
2016-09-01T05:17:41.441Z,70.29
2016-09-01T05:18:22.549Z,70.43
2016-09-01T05:19:49.174Z,70.34
2016-09-01T05:20:14.811Z,70.47
2016-09-01T05:21:29.000Z,70.50
2016-09-01T05:22:12.948Z,70.54
2016-09-01T05:23:34.392Z,70.55
2016-09-01T05:24:27.739Z,70.68
2016-09-01T05:25:44.445Z,70.85
2016-09-01T05:26:49.831Z,71.00
2016-09-01T05:27:38.457Z,71.07
2016-09-01T05:28:43.016Z,71.02
2016-09-01T05:29:40.668Z,70.99
2016-09-01T05:30:46.457Z,71.31
2016-09-01T05:31:45.126Z,71.77
2016-09-01T05:32:44.652Z,72.16
2016-09-01T05:33:55.816Z,72.18
2016-09-01T05:34:41.246Z,72.60
2016-09-01T05:35:45.349Z,72.65
2016-09-01T05:36:50.889Z,72.93
2016-09-01T05:37:50.464Z,73.24
2016-09-01T05:38:44.402Z,73.31
2016-09-01T05:39:45.803Z,73.08
2016-09-01T05:40:23.310Z,72.94
2016-09-01T05:41:54.770Z,72.69
2016-09-01T05:42:16.979Z,72.66
2016-09-01T05:43:48.165Z,72.69
2016-09-01T05:44:21.537Z,72.82
2016-09-01T05:45:48.708Z,72.83
2016-09-01T05:46:46.131Z,73.01
2016-09-01T05:47:44.820Z,73.07
2016-09-01T05:48:46.459Z,73.00
2016-09-01T05:49:43.425Z,73.01
2016-09-01T05:50:56.095Z,73.01
2016-09-01T05:51:42.213Z,73.13
2016-09-01T05:52:47.386Z,73.34
2016-09-01T05:53:45.839Z,73.44
2016-09-01T05:55:01.847Z,73.56
2016-09-01T05:55:43.678Z,73.88
2016-09-01T05:56:50.631Z,74.39
2016-09-01T05:57:50.589Z,74.64
2016-09-01T05:58:56.299Z,75.16
2016-09-01T05:59:56.407Z,75.71
2016-09-01T06:00:45.795Z,75.79
2016-09-01T06:01:45.720Z,75.42
2016-09-01T06:02:45.251Z,75.28
2016-09-01T06:03:50.684Z,74.87
2016-09-01T06:04:45.751Z,74.65
2016-09-01T06:05:47.138Z,74.50
2016-09-01T06:06:49.911Z,74.42
2016-09-01T06:07:46.319Z,74.55
2016-09-01T06:08:40.761Z,74.77
2016-09-01T06:09:50.680Z,74.50
2016-09-01T06:10:57.225Z,74.55
2016-09-01T06:11:44.734Z,74.36
2016-09-01T06:12:46.133Z,74.31
2016-09-01T06:13:56.530Z,74.39
2016-09-01T06:14:45.185Z,74.55
2016-09-01T06:15:50.078Z,74.60
2016-09-01T06:16:50.238Z,74.67
2016-09-01T06:17:49.981Z,74.75
2016-09-01T06:18:53.669Z,74.79
2016-09-01T06:19:44.674Z,74.94
2016-09-01T06:20:50.938Z,75.01
2016-09-01T06:21:48.264Z,75.11
2016-09-01T06:22:51.739Z,75.18
2016-09-01T06:23:56.301Z,75.20
2016-09-01T06:24:46.312Z,75.37
2016-09-01T06:25:51.711Z,75.36
2016-09-01T06:26:55.470Z,75.43
2016-09-01T06:27:54.138Z,75.67
2016-09-01T06:28:32.209Z,75.57
2016-09-01T06:29:49.735Z,75.44
2016-09-01T06:30:45.538Z,75.36
2016-09-01T06:31:54.911Z,75.26
2016-09-01T06:32:45.964Z,75.39
2016-09-01T06:33:43.451Z,75.54
2016-09-01T06:34:57.286Z,75.67
2016-09-01T06:35:54.992Z,75.58
2016-09-01T06:37:45.289Z,75.90
2016-09-01T06:38:46.168Z,76.55
2016-09-01T06:39:50.547Z,76.27
2016-09-01T06:40:57.154Z,74.98
2016-09-01T06:41:48.416Z,73.36
2016-09-01T06:42:55.272Z,72.62
2016-09-01T06:43:57.288Z,71.60
2016-09-01T06:44:43.637Z,71.15
2016-09-01T06:46:16.485Z,70.99
2016-09-01T06:46:39.815Z,71.69
2016-09-01T06:47:35.349Z,72.03
2016-09-01T06:48:35.580Z,72.36
2016-09-01T06:49:28.415Z,72.45
2016-09-01T06:50:41.853Z,72.43
2016-09-01T06:51:15.891Z,72.49
2016-09-01T06:52:16.983Z,72.68
2016-09-01T06:53:29.317Z,71.47
2016-09-01T06:54:22.005Z,71.71
2016-09-01T06:55:31.965Z,72.30
2016-09-01T06:56:37.271Z,72.80
2016-09-01T06:57:39.431Z,72.08
2016-09-01T06:58:49.789Z,72.69
2016-09-01T06:59:46.725Z,72.74
2016-09-01T07:00:39.822Z,72.84
2016-09-01T07:01:43.866Z,72.85
2016-09-01T07:02:49.057Z,72.73
2016-09-01T07:03:34.264Z,71.94
2016-09-01T07:04:56.000Z,72.29
2016-09-01T07:05:48.325Z,72.64
2016-09-01T07:06:44.669Z,72.85
2016-09-01T07:07:49.406Z,72.80
2016-09-01T07:08:39.546Z,72.86
2016-09-01T07:09:40.335Z,72.54
2016-09-01T07:10:44.034Z,72.70
2016-09-01T07:11:51.642Z,72.70
2016-09-01T07:12:41.673Z,72.60
2016-09-01T07:13:46.668Z,72.57
2016-09-01T07:14:52.695Z,72.42
2016-09-01T07:15:45.202Z,72.40
2016-09-01T07:16:45.295Z,72.31
2016-09-01T07:17:33.184Z,72.27
2016-09-01T07:18:43.289Z,72.22
2016-09-01T07:19:51.515Z,72.12
2016-09-01T07:20:44.946Z,72.10
2016-09-01T07:21:44.187Z,72.00
2016-09-01T07:22:47.347Z,72.01
2016-09-01T07:23:48.796Z,71.94
2016-09-01T07:24:40.249Z,71.90
2016-09-01T07:25:40.730Z,71.81
2016-09-01T07:26:55.026Z,71.76
2016-09-01T07:27:44.813Z,71.69
2016-09-01T07:28:50.085Z,71.66
2016-09-01T07:29:52.223Z,71.57
2016-09-01T07:30:49.665Z,71.58
2016-09-01T07:31:52.125Z,71.50
2016-09-01T07:32:45.578Z,71.44
2016-09-01T07:33:51.789Z,71.39
2016-09-01T07:34:49.581Z,71.33
2016-09-01T07:35:40.465Z,71.27
2016-09-01T07:36:44.942Z,71.25
2016-09-01T07:37:37.666Z,71.24
2016-09-01T07:38:41.007Z,71.17
2016-09-01T07:39:50.646Z,71.13
2016-09-01T07:41:39.943Z,71.09
2016-09-01T07:42:06.115Z,71.05
2016-09-01T07:42:50.924Z,71.04
2016-09-01T07:43:46.442Z,70.99
2016-09-01T07:44:42.958Z,70.96
2016-09-01T07:45:44.055Z,70.91
2016-09-01T07:46:23.871Z,70.86
2016-09-01T07:47:44.892Z,70.83
2016-09-01T07:48:27.775Z,70.81
2016-09-01T07:49:55.464Z,70.77
2016-09-01T07:50:46.060Z,70.72
2016-09-01T07:51:39.626Z,70.72
2016-09-01T07:52:44.910Z,70.67
2016-09-01T07:53:52.783Z,70.63
2016-09-01T07:54:49.915Z,70.64
2016-09-01T07:55:45.924Z,70.57
2016-09-01T07:56:27.464Z,70.55
2016-09-01T07:57:44.891Z,70.51
2016-09-01T07:58:54.065Z,70.48
2016-09-01T07:59:47.413Z,70.42
2016-09-01T08:00:49.225Z,70.36
2016-09-01T08:01:44.655Z,70.38
2016-09-01T08:02:27.044Z,70.38
2016-09-01T08:03:48.107Z,70.33
2016-09-01T08:04:41.920Z,70.29
2016-09-01T08:05:50.074Z,70.27
2016-09-01T08:06:45.260Z,70.24
2016-09-01T08:07:52.189Z,70.16
2016-09-01T08:08:40.036Z,70.17
2016-09-01T08:09:32.885Z,70.11
2016-09-01T08:10:44.521Z,70.05
2016-09-01T08:11:50.941Z,70.04
2016-09-01T08:12:43.934Z,70.01
2016-09-01T08:13:38.656Z,69.96
2016-09-01T08:14:40.572Z,68.87
2016-09-01T08:15:39.517Z,68.55
2016-09-01T08:16:56.051Z,68.46
2016-09-01T08:17:52.009Z,69.43
2016-09-01T08:18:31.956Z,69.63
2016-09-01T08:19:38.445Z,69.63
2016-09-01T08:20:45.606Z,69.65
2016-09-01T08:21:46.366Z,69.69
2016-09-01T08:22:40.314Z,69.71
2016-09-01T08:23:49.686Z,69.64
2016-09-01T08:24:45.400Z,69.66
2016-09-01T08:25:50.200Z,69.62
2016-09-01T08:26:52.519Z,69.64
2016-09-01T08:28:06.859Z,69.58
2016-09-01T08:28:49.181Z,69.58
2016-09-01T08:29:45.056Z,69.50
2016-09-01T08:30:44.886Z,69.57
2016-09-01T08:31:50.217Z,69.45
2016-09-01T08:32:45.674Z,69.45
2016-09-01T08:33:45.166Z,69.41
2016-09-01T08:34:31.262Z,69.41
2016-09-01T08:35:44.193Z,69.42
2016-09-01T08:36:51.262Z,69.39
2016-09-01T08:37:40.779Z,69.36
2016-09-01T08:38:46.621Z,69.38
2016-09-01T08:39:38.919Z,69.29
2016-09-01T08:40:38.843Z,69.27
2016-09-01T08:41:45.347Z,69.23
2016-09-01T08:42:39.599Z,69.26
2016-09-01T08:43:57.439Z,69.26
2016-09-01T08:44:40.902Z,69.23
2016-09-01T08:45:44.430Z,69.19
2016-09-01T08:46:45.148Z,69.16
2016-09-01T08:47:32.711Z,69.12
2016-09-01T08:48:44.910Z,69.11
2016-09-01T08:49:35.890Z,69.12
2016-09-01T08:50:48.892Z,69.09
2016-09-01T08:51:44.106Z,69.07
2016-09-01T08:52:39.410Z,69.08
2016-09-01T08:53:44.021Z,68.99
2016-09-01T08:54:52.183Z,68.97
2016-09-01T08:55:45.266Z,68.97
2016-09-01T08:56:20.590Z,68.93
2016-09-01T08:57:17.789Z,68.88
2016-09-01T08:58:13.568Z,68.86
2016-09-01T08:59:44.812Z,68.85
2016-09-01T09:00:50.925Z,68.83
2016-09-01T09:01:46.750Z,68.83
2016-09-01T09:02:45.765Z,68.85
2016-09-01T09:03:40.535Z,68.84
2016-09-01T09:04:28.558Z,68.81
2016-09-01T09:05:21.255Z,68.80
2016-09-01T09:06:15.840Z,68.76
2016-09-01T09:07:25.339Z,68.77
2016-09-01T09:08:19.975Z,68.75
2016-09-01T09:09:20.221Z,68.74
2016-09-01T09:10:27.534Z,68.72
2016-09-01T09:11:45.967Z,68.72
2016-09-01T09:12:47.821Z,68.69
2016-09-01T09:13:50.571Z,68.64
2016-09-01T09:14:50.577Z,68.62
2016-09-01T09:15:45.782Z,68.61
2016-09-01T09:16:50.592Z,68.59
2016-09-01T09:17:40.612Z,68.57
2016-09-01T09:18:39.907Z,68.59
2016-09-01T09:19:49.823Z,68.56
2016-09-01T09:20:45.213Z,68.54
2016-09-01T09:21:39.186Z,68.49
2016-09-01T09:22:54.425Z,68.57
2016-09-01T09:23:44.819Z,68.61
2016-09-01T09:24:50.857Z,68.52
2016-09-01T09:25:52.877Z,68.54
2016-09-01T09:26:45.780Z,68.51
2016-09-01T09:27:44.233Z,68.48
2016-09-01T09:28:30.124Z,68.48
2016-09-01T09:29:42.601Z,68.43
2016-09-01T09:30:40.812Z,68.39
2016-09-01T09:31:45.551Z,68.35
2016-09-01T09:32:38.075Z,68.34
2016-09-01T09:33:14.154Z,68.20
2016-09-01T09:34:14.062Z,67.28
2016-09-01T09:35:15.765Z,67.39
2016-09-01T09:36:23.714Z,68.02
2016-09-01T09:37:22.173Z,68.16
2016-09-01T09:38:47.724Z,68.19
2016-09-01T09:39:27.502Z,68.20
2016-09-01T09:40:23.594Z,68.31
2016-09-01T09:41:14.986Z,68.28
2016-09-01T09:42:16.518Z,68.30
2016-09-01T09:43:15.167Z,68.30
2016-09-01T09:44:15.117Z,68.28
2016-09-01T09:45:15.421Z,68.23
2016-09-01T09:46:12.297Z,67.99
2016-09-01T09:47:39.064Z,68.28
2016-09-01T09:48:45.655Z,68.37
2016-09-01T09:49:13.766Z,68.44
2016-09-01T09:50:14.718Z,67.40
2016-09-01T09:51:21.106Z,67.16
2016-09-01T09:52:22.751Z,67.10
2016-09-01T09:53:14.267Z,66.99
2016-09-01T09:54:15.369Z,67.06
2016-09-01T09:55:14.030Z,67.11
2016-09-01T09:56:29.801Z,67.09
2016-09-01T09:57:19.862Z,67.23
2016-09-01T09:58:14.233Z,67.15
2016-09-01T09:59:23.821Z,67.23
2016-09-01T10:00:16.257Z,67.28
2016-09-01T10:01:22.127Z,67.32
2016-09-01T10:02:30.909Z,67.55
2016-09-01T10:03:40.453Z,67.61
2016-09-01T10:04:43.975Z,67.70
2016-09-01T10:05:37.752Z,68.00
2016-09-01T10:06:14.689Z,67.99
2016-09-01T10:07:45.717Z,67.82
2016-09-01T10:08:48.194Z,67.60
2016-09-01T10:09:40.815Z,69.36
2016-09-01T10:10:40.003Z,69.72
2016-09-01T10:11:27.692Z,69.94
2016-09-01T10:12:23.154Z,69.99
2016-09-01T10:13:17.687Z,70.09
2016-09-01T10:14:17.172Z,70.09
2016-09-01T10:15:43.169Z,70.15
2016-09-01T10:16:41.053Z,70.38
2016-09-01T10:17:48.124Z,70.10
2016-09-01T10:18:39.347Z,70.14
2016-09-01T10:19:48.910Z,70.11
2016-09-01T10:20:44.664Z,69.99
2016-09-01T10:21:44.878Z,70.00
2016-09-01T10:22:38.153Z,70.06
2016-09-01T10:23:35.881Z,70.06
2016-09-01T10:24:45.922Z,70.06
2016-09-01T10:25:34.887Z,70.04
2016-09-01T10:26:26.340Z,70.02
2016-09-01T10:27:30.177Z,70.01
2016-09-01T10:28:21.558Z,70.03
2016-09-01T10:29:45.329Z,69.99
2016-09-01T10:30:51.737Z,70.03
2016-09-01T10:31:33.905Z,70.06
2016-09-01T10:32:18.386Z,70.01
2016-09-01T10:33:16.871Z,69.96
2016-09-01T10:34:44.216Z,68.93
2016-09-01T10:35:44.214Z,68.65
2016-09-01T10:36:43.641Z,68.57
2016-09-01T10:37:43.791Z,68.47
2016-09-01T10:38:44.651Z,68.48
2016-09-01T10:39:34.975Z,68.45
2016-09-01T10:40:41.279Z,68.48
2016-09-01T10:41:37.812Z,69.53
2016-09-01T10:42:30.389Z,69.63
2016-09-01T10:43:18.877Z,69.87
2016-09-01T10:44:25.797Z,69.95
2016-09-01T10:45:36.571Z,70.14
2016-09-01T10:46:15.265Z,70.41
2016-09-01T10:47:13.246Z,70.28
2016-09-01T10:48:20.581Z,70.27
2016-09-01T10:49:14.680Z,70.39
2016-09-01T10:50:24.153Z,70.45
2016-09-01T10:51:16.266Z,70.26
2016-09-01T10:52:31.678Z,70.99
2016-09-01T10:53:41.488Z,70.39
2016-09-01T10:54:20.166Z,70.45
2016-09-01T10:55:16.239Z,70.43
2016-09-01T10:56:23.696Z,70.48
2016-09-01T10:57:17.212Z,70.68
2016-09-01T10:58:48.007Z,70.72
2016-09-01T10:59:46.652Z,70.52
2016-09-01T11:00:21.278Z,70.76
2016-09-01T11:01:13.491Z,70.52
2016-09-01T11:02:14.395Z,70.39
2016-09-01T11:03:20.013Z,70.46
2016-09-01T11:04:29.529Z,70.61
2016-09-01T11:05:16.151Z,70.49
2016-09-01T11:06:13.569Z,70.84
2016-09-01T11:07:19.725Z,70.74
2016-09-01T11:08:24.604Z,69.63
2016-09-01T11:09:17.155Z,69.34
2016-09-01T11:10:17.675Z,69.29
2016-09-01T11:11:14.688Z,69.60
2016-09-01T11:12:39.406Z,70.22
2016-09-01T11:13:41.342Z,70.67
2016-09-01T11:14:50.447Z,71.09
2016-09-01T11:15:16.002Z,70.97
2016-09-01T11:16:41.349Z,71.46
2016-09-01T11:17:24.298Z,71.12
2016-09-01T11:18:39.271Z,71.04
2016-09-01T11:19:50.154Z,71.21
2016-09-01T11:20:21.992Z,71.39
2016-09-01T11:21:54.123Z,71.22
2016-09-01T11:22:51.291Z,71.67
2016-09-01T11:23:49.945Z,71.79
2016-09-01T11:24:52.643Z,71.54
2016-09-01T11:25:45.227Z,71.79
2016-09-01T11:26:45.235Z,71.55
2016-09-01T11:27:57.959Z,71.68
2016-09-01T11:28:52.428Z,71.86
2016-09-01T11:29:45.523Z,71.65
2016-09-01T11:30:51.483Z,71.85
2016-09-01T11:31:44.374Z,71.72
2016-09-01T11:32:44.868Z,71.67
2016-09-01T11:33:44.629Z,71.77
2016-09-01T11:34:44.079Z,71.70
2016-09-01T11:36:17.359Z,71.51
2016-09-01T11:36:49.807Z,71.55
2016-09-01T11:37:45.655Z,71.68
2016-09-01T11:38:55.697Z,71.36
2016-09-01T11:39:50.262Z,71.45
2016-09-01T11:40:32.744Z,71.61
2016-09-01T11:41:33.598Z,71.84
2016-09-01T11:42:48.055Z,71.37
2016-09-01T11:43:39.032Z,71.02
2016-09-01T11:44:37.512Z,70.55
2016-09-01T11:45:40.465Z,70.48
2016-09-01T11:46:39.688Z,70.97
2016-09-01T11:47:40.815Z,70.27
2016-09-01T11:48:27.810Z,70.52
2016-09-01T11:49:39.384Z,70.33
2016-09-01T11:50:44.360Z,69.99
2016-09-01T11:51:35.014Z,70.96
2016-09-01T11:52:43.267Z,69.36
2016-09-01T11:53:38.121Z,69.35
2016-09-01T11:54:48.105Z,69.19
2016-09-01T11:55:44.124Z,69.07
2016-09-01T11:56:40.956Z,69.89
2016-09-01T11:57:41.064Z,68.72
2016-09-01T11:58:41.721Z,69.24
2016-09-01T11:59:47.243Z,68.98
2016-09-01T12:00:43.582Z,70.22
2016-09-01T12:01:26.590Z,67.82
2016-09-01T12:02:21.476Z,68.74
2016-09-01T12:03:37.868Z,69.74
2016-09-01T12:04:41.954Z,69.51
2016-09-01T12:05:31.568Z,69.69
2016-09-01T12:06:43.519Z,69.72
2016-09-01T12:07:35.746Z,69.82
2016-09-01T12:08:29.916Z,69.95
2016-09-01T12:09:47.071Z,69.89
2016-09-01T12:10:45.411Z,70.24
2016-09-01T12:11:39.179Z,70.09
2016-09-01T12:12:31.055Z,70.08
2016-09-01T12:13:44.166Z,69.89
2016-09-01T12:14:42.737Z,68.36
2016-09-01T12:15:44.435Z,67.33
2016-09-01T12:16:51.175Z,66.39
2016-09-01T12:17:46.452Z,66.20
2016-09-01T12:18:51.876Z,65.88
2016-09-01T12:19:46.210Z,66.20
2016-09-01T12:20:43.922Z,66.94
2016-09-01T12:21:53.147Z,67.28
2016-09-01T12:22:49.892Z,67.30
2016-09-01T12:23:21.919Z,67.58
2016-09-01T12:24:40.496Z,67.55
2016-09-01T12:25:14.845Z,67.61
2016-09-01T12:26:25.259Z,67.62
2016-09-01T12:27:13.948Z,67.08
2016-09-01T12:28:33.688Z,67.23
2016-09-01T12:29:17.057Z,66.93
2016-09-01T12:30:37.749Z,66.66
2016-09-01T12:31:22.921Z,66.46
2016-09-01T12:32:32.474Z,66.60
2016-09-01T12:33:33.155Z,66.44
2016-09-01T12:34:37.957Z,66.60
2016-09-01T12:35:51.690Z,66.93
2016-09-01T12:36:38.935Z,66.90
2016-09-01T12:37:31.695Z,67.01
2016-09-01T12:38:46.439Z,66.93
2016-09-01T12:39:53.467Z,66.87
2016-09-01T12:40:46.385Z,66.49
2016-09-01T12:41:52.201Z,66.20
2016-09-01T12:42:40.033Z,66.08
2016-09-01T12:43:55.216Z,66.12
2016-09-01T12:44:47.439Z,65.66
2016-09-01T12:45:44.485Z,65.86
2016-09-01T12:46:33.878Z,66.13
2016-09-01T12:47:42.197Z,66.17
2016-09-01T12:48:40.223Z,66.30
2016-09-01T12:49:40.485Z,66.59
2016-09-01T12:50:51.743Z,66.72
2016-09-01T12:51:50.250Z,66.65
2016-09-01T12:52:49.756Z,66.61
2016-09-01T12:53:57.694Z,66.44
2016-09-01T12:54:42.454Z,66.22